ADDS METAR Data INFO
IDs: Format: Raw Decoded Include TAF

Data at: 1318 UTC 11 Dec 2017

K0F2 111255Z AUTO 26006KT 10SM CLR 08/M09 A3025 RMK AO2 T00841092
K0F2 111235Z AUTO 26006KT 10SM CLR 09/M09 A3025 RMK AO2 T00851088
K0F2 111215Z AUTO 26005KT 10SM CLR 09/M09 A3024 RMK AO2 T00861087
K0F2 111155Z AUTO 26006KT 10SM CLR 09/M09 A3024 RMK AO2 T00941088 10122 20092
K0F2 111135Z AUTO 26004KT 10SM CLR 10/M09 A3024 RMK AO2 T00961086
K0F2 111115Z AUTO 27005KT 10SM CLR 10/M08 A3024 RMK AO2 T01031085
K0F2 111055Z AUTO 26006KT 10SM CLR 10/M08 A3024 RMK AO2 T01041085
K0F2 111035Z AUTO 26004KT 10SM CLR 10/M09 A3024 RMK AO2 T00961086
K0F2 111015Z AUTO 26003KT 10SM CLR 10/M09 A3025 RMK AO2 T00951090
K0F2 110955Z AUTO 26003KT 10SM CLR 10/M09 A3026 RMK AO2 T00951090
K0F2 110935Z AUTO 25004KT 10SM CLR 10/M09 A3026 RMK AO2 T00971090
K0F2 110915Z AUTO 26004KT 10SM CLR 10/M09 A3026 RMK AO2 T01031090
K0F2 110855Z AUTO 26006KT 10SM CLR 11/M09 A3027 RMK AO2 T01051088
K0F2 110835Z AUTO 25006KT 10SM CLR 10/M09 A3027 RMK AO2 T01021090
K0F2 110815Z AUTO 25005KT 10SM CLR 11/M09 A3027 RMK AO2 T01111095
K0F2 110755Z AUTO 23005KT 10SM CLR 11/M10 A3027 RMK AO2 T01141096
K0F2 110735Z AUTO 24004KT 10SM CLR 12/M10 A3027 RMK AO2 T01171097
K0F2 110715Z AUTO 24003KT 10SM CLR 11/M09 A3026 RMK AO2 T01121094
K0F2 110655Z AUTO 23005KT 10SM CLR 12/M10 A3027 RMK AO2 T01161096
K0F2 110635Z AUTO 24004KT 10SM CLR 12/M10 A3027 RMK AO2 T01171097
K0F2 110615Z AUTO 25003KT 10SM CLR 11/M09 A3027 RMK AO2 T01141095
K0F2 110555Z AUTO 25004KT 10SM CLR 12/M10 A3027 RMK AO2 T01221098 10162 20074 402191018
K0F2 110535Z AUTO 25004KT 10SM CLR 12/M10 A3028 RMK AO2 T01181097
K0F2 110515Z AUTO 25003KT 10SM CLR 08/M08 A3029 RMK AO2 T00841077
K0F2 110455Z AUTO 25004KT 10SM CLR 11/M09 A3029 RMK AO2 T01131090
K0F2 110435Z AUTO 00000KT 10SM CLR 08/M08 A3029 RMK AO2 T00801079
K0F2 110415Z AUTO 00000KT 10SM CLR 07/M07 A3029 RMK AO2 T00741071
K0F2 110355Z AUTO 24003KT 10SM CLR 13/M10 A3029 RMK AO2 T01271096
K0F2 110335Z AUTO 25003KT 10SM CLR 13/M09 A3030 RMK AO2 T01291095
K0F2 110315Z AUTO 25003KT 10SM CLR 13/M09 A3030 RMK AO2 T01321095
K0F2 110255Z AUTO 25004KT 10SM CLR 13/M09 A3030 RMK AO2 T01311092
K0F2 110235Z AUTO 25003KT 10SM CLR 14/M09 A3030 RMK AO2 T01351095
K0F2 110215Z AUTO 00000KT 10SM CLR 14/M09 A3030 RMK AO2 T01371095
K0F2 110155Z AUTO 25004KT 10SM CLR 14/M09 A3030 RMK AO2 T01371095
K0F2 110135Z AUTO 26004KT 10SM CLR 14/M10 A3030 RMK AO2 T01371097
K0F2 110115Z AUTO 26003KT 10SM CLR 14/M10 A3030 RMK AO2 T01351100
K0F2 110055Z AUTO 25003KT 10SM CLR 15/M10 A3030 RMK AO2 T01471103
K0F2 110035Z AUTO 26003KT 10SM CLR 15/M10 A3030 RMK AO2 T01491105
K0F2 110015Z AUTO 27003KT 10SM CLR 15/M10 A3030 RMK AO2 T01521101
K0F2 102355Z AUTO 26004KT 10SM CLR 16/M10 A3030 RMK AO2 T01621104 10219 20162
K0F2 102335Z AUTO 26003KT 10SM CLR 18/M10 A3030 RMK AO2 T01751105
K0F2 102315Z AUTO 26004KT 10SM CLR 18/M10 A3029 RMK AO2 T01821105
K0F2 102255Z AUTO 27005KT 10SM CLR 20/M10 A3030 RMK AO2 T01951105
K0F2 102235Z AUTO 27007KT 10SM CLR 21/M10 A3029 RMK AO2 T02051105
K0F2 102215Z AUTO 28006KT 10SM CLR 21/M10 A3029 RMK AO2 T02101105
K0F2 102155Z AUTO 29011G14KT 10SM CLR 21/M11 A3029 RMK AO2 T02121106
K0F2 102135Z AUTO 29010G16KT 10SM CLR 21/M10 A3029 RMK AO2 T02141105
K0F2 102115Z AUTO 29012G17KT 10SM CLR 22/M11 A3029 RMK AO2 T02151106
K0F2 102055Z AUTO 27009G14KT 10SM CLR 22/M09 A3029 RMK AO2 T02181092
K0F2 102035Z AUTO 28011G14KT 10SM CLR 21/M09 A3029 RMK AO2 T02141091
K0F2 102015Z AUTO 28012G17KT 10SM CLR 21/M09 A3030 RMK AO2 T02101094
K0F2 101955Z AUTO 29012G18KT 10SM CLR 21/M09 A3031 RMK AO2 T02091089
K0F2 101935Z AUTO 30013G18KT 10SM CLR 21/M09 A3031 RMK AO2 T02091087
K0F2 101915Z AUTO 27009G15KT 10SM CLR 20/M09 A3032 RMK AO2 T02021086
K0F2 101855Z AUTO 28010G17KT 10SM CLR 20/M08 A3033 RMK AO2 T01991083
K0F2 101835Z AUTO 26011G15KT 10SM CLR 19/M08 A3034 RMK AO2 T01931076
K0F2 101815Z AUTO 25009G14KT 10SM CLR 18/M07 A3035 RMK AO2 T01841073
K0F2 101755Z AUTO 26008KT 10SM CLR 18/M07 A3036 RMK AO2 T01791071 10179 21011
K0F2 101735Z AUTO 27007KT 10SM CLR 16/M07 A3037 RMK AO2 T01641067
K0F2 101715Z AUTO 27006KT 10SM CLR 15/M06 A3037 RMK AO2 T01511061
K0F2 101655Z AUTO 26006KT 10SM CLR 13/M06 A3038 RMK AO2 T01331059
K0F2 101635Z AUTO 27006KT 10SM CLR 12/M06 A3039 RMK AO2 T01201057
K0F2 101615Z AUTO 28006KT 10SM CLR 11/M06 A3039 RMK AO2 T01061056
K0F2 101555Z AUTO 29007KT 10SM CLR 10/M06 A3039 RMK AO2 T01001058
K0F2 101535Z AUTO 28005KT 10SM CLR 09/M06 A3039 RMK AO2 T00901063
K0F2 101515Z AUTO 26004KT 10SM CLR 08/M06 A3039 RMK AO2 T00771062
K0F2 101455Z AUTO 25004KT 10SM CLR 06/M06 A3038 RMK AO2 T00641060
K0F2 101435Z AUTO 26004KT 10SM CLR 05/M06 A3038 RMK AO2 T00501059
K0F2 101415Z AUTO 25003KT 10SM CLR 04/M06 A3038 RMK AO2 T00441061
K0F2 101355Z AUTO 25005KT 10SM CLR 04/M06 A3038 RMK AO2 T00361061
K0F2 101335Z AUTO 25003KT 10SM CLR 03/M06 A3038 RMK AO2 T00331065
K0F2 101315Z AUTO 27004KT 10SM CLR 02/M06 A3037 RMK AO2 T00231061
K0F2 101255Z AUTO 00000KT 10SM CLR 01/M06 A3037 RMK AO2 T00101058
K0F2 101235Z AUTO 00000KT 10SM CLR 00/M05 A3037 RMK AO2 T10041053
K0F2 101215Z AUTO 23003KT 10SM CLR 01/M06 A3036 RMK AO2 T00131056
K0F2 101155Z AUTO 24003KT 10SM CLR 03/M06 A3035 RMK AO2 T00321056 10050 21018
K0F2 101135Z AUTO 24004KT 10SM CLR 03/M05 A3034 RMK AO2 T00341055
K0F2 101115Z AUTO 24005KT 10SM CLR 04/M05 A3034 RMK AO2 T00391051
K0F2 101055Z AUTO 25005KT 10SM CLR 04/M05 A3034 RMK AO2 T00411050
K0F2 101035Z AUTO 24003KT 10SM CLR 04/M05 A3034 RMK AO2 T00441053
K0F2 101015Z AUTO 22005KT 10SM CLR 03/M05 A3034 RMK AO2 T00301051
K0F2 100955Z AUTO 00000KT 10SM CLR 03/M05 A3035 RMK AO2 T00301053
K0F2 100935Z AUTO 24003KT 10SM CLR 05/M05 A3035 RMK AO2 T00461054
K0F2 100915Z AUTO 24005KT 10SM CLR 04/M05 A3036 RMK AO2 T00391051
K0F2 100855Z AUTO 24003KT 10SM CLR M01/M05 A3035 RMK AO2 T10121054
K0F2 100835Z AUTO 00000KT 10SM CLR M02/M05 A3035 RMK AO2 T10161053
K0F2 100815Z AUTO 00000KT 10SM CLR M01/M05 A3035 RMK AO2 T10101050
K0F2 100755Z AUTO 00000KT 10SM CLR 00/M05 A3036 RMK AO2 T10051055
K0F2 100735Z AUTO 00000KT 10SM CLR 00/M05 A3036 RMK AO2 T00031054
K0F2 100715Z AUTO 00000KT 10SM CLR M01/M05 A3036 RMK AO2 T10121054
K0F2 100655Z AUTO 00000KT 10SM CLR M01/M06 A3037 RMK AO2 T10141059
K0F2 100635Z AUTO 00000KT 10SM CLR M01/M05 A3037 RMK AO2 T10141054
K0F2 100615Z AUTO 00000KT 10SM CLR M01/M05 A3036 RMK AO2 T10061048
K0F2 100555Z AUTO 00000KT 10SM CLR 00/M05 A3036 RMK AO2 T00041048 10088 21008 401381034
K0F2 100535Z AUTO 00000KT 10SM CLR 00/M05 A3036 RMK AO2 T10031055
K0F2 100515Z AUTO 00000KT 10SM CLR 01/M06 A3035 RMK AO2 T00081057
K0F2 100455Z AUTO 00000KT 10SM CLR 00/M06 A3035 RMK AO2 T00001056
K0F2 100435Z AUTO 00000KT 10SM CLR 01/M06 A3034 RMK AO2 T00081058
K0F2 100415Z AUTO 00000KT 10SM CLR 01/M06 A3034 RMK AO2 T00101057
K0F2 100355Z AUTO 00000KT 10SM CLR 03/M06 A3033 RMK AO2 T00271061
K0F2 100335Z AUTO 00000KT 10SM CLR 03/M06 A3033 RMK AO2 T00301063
K0F2 100315Z AUTO 26003KT 10SM CLR 04/M06 A3032 RMK AO2 T00441061
K0F2 100255Z AUTO 28003KT 10SM CLR 05/M06 A3032 RMK AO2 T00491062
K0F2 100235Z AUTO 27003KT 10SM CLR 04/M06 A3032 RMK AO2 T00441062
K0F2 100215Z AUTO 28003KT 10SM CLR 04/M06 A3032 RMK AO2 T00411062
K0F2 100155Z AUTO 28003KT 10SM CLR 05/M06 A3032 RMK AO2 T00471063
K0F2 100135Z AUTO 00000KT 10SM CLR 06/M06 A3031 RMK AO2 T00601060